sensor_id;sensor_type;location;lat;lon;timestamp;P1;durP1;ratioP1;P2;durP2;ratioP2
82744;SDS011;72484;50.004;14.356;2023-11-18T00:01:34;7.30;;;2.70;;
82744;SDS011;72484;50.004;14.356;2023-11-18T00:06:11;7.40;;;2.70;;
82744;SDS011;72484;50.004;14.356;2023-11-18T00:10:10;7.00;;;2.60;;
82744;SDS011;72484;50.004;14.356;2023-11-18T00:14:08;7.40;;;2.90;;
82744;SDS011;72484;50.004;14.356;2023-11-18T00:18:05;6.60;;;2.80;;
82744;SDS011;72484;50.004;14.356;2023-11-18T00:22:02;6.80;;;2.70;;
82744;SDS011;72484;50.004;14.356;2023-11-18T00:26:20;9.00;;;3.60;;
82744;SDS011;72484;50.004;14.356;2023-11-18T00:29:37;6.70;;;2.60;;
82744;SDS011;72484;50.004;14.356;2023-11-18T00:33:35;7.50;;;3.10;;
82744;SDS011;72484;50.004;14.356;2023-11-18T00:37:34;6.50;;;2.40;;
82744;SDS011;72484;50.004;14.356;2023-11-18T00:41:51;7.50;;;2.80;;
82744;SDS011;72484;50.004;14.356;2023-11-18T00:45:49;7.10;;;2.70;;
82744;SDS011;72484;50.004;14.356;2023-11-18T00:49:46;6.50;;;2.70;;
82744;SDS011;72484;50.004;14.356;2023-11-18T00:53:44;7.70;;;2.90;;
82744;SDS011;72484;50.004;14.356;2023-11-18T00:58:02;6.80;;;2.70;;
82744;SDS011;72484;50.004;14.356;2023-11-18T01:02:03;6.50;;;2.40;;
82744;SDS011;72484;50.004;14.356;2023-11-18T01:06:00;6.90;;;2.70;;
82744;SDS011;72484;50.004;14.356;2023-11-18T01:10:06;7.00;;;2.40;;
82744;SDS011;72484;50.004;14.356;2023-11-18T01:14:11;7.20;;;2.80;;
82744;SDS011;72484;50.004;14.356;2023-11-18T01:18:09;8.50;;;2.80;;
82744;SDS011;72484;50.004;14.356;2023-11-18T01:22:06;7.10;;;2.80;;
82744;SDS011;72484;50.004;14.356;2023-11-18T01:26:16;7.10;;;2.50;;
82744;SDS011;72484;50.004;14.356;2023-11-18T01:30:14;7.00;;;2.50;;
82744;SDS011;72484;50.004;14.356;2023-11-18T01:34:12;7.60;;;2.60;;
82744;SDS011;72484;50.004;14.356;2023-11-18T01:38:13;7.20;;;2.60;;
82744;SDS011;72484;50.004;14.356;2023-11-18T01:42:54;6.80;;;2.90;;
82744;SDS011;72484;50.004;14.356;2023-11-18T01:46:50;6.50;;;2.50;;
82744;SDS011;72484;50.004;14.356;2023-11-18T01:50:49;6.90;;;2.70;;
82744;SDS011;72484;50.004;14.356;2023-11-18T01:55:47;6.40;;;2.30;;
82744;SDS011;72484;50.004;14.356;2023-11-18T02:00:13;6.40;;;2.50;;
82744;SDS011;72484;50.004;14.356;2023-11-18T02:03:53;6.70;;;2.30;;
82744;SDS011;72484;50.004;14.356;2023-11-18T02:07:50;7.10;;;2.80;;
82744;SDS011;72484;50.004;14.356;2023-11-18T02:11:51;6.80;;;2.60;;
82744;SDS011;72484;50.004;14.356;2023-11-18T02:15:55;7.20;;;2.70;;
82744;SDS011;72484;50.004;14.356;2023-11-18T02:19:55;7.30;;;2.70;;
82744;SDS011;72484;50.004;14.356;2023-11-18T02:23:53;6.40;;;2.60;;
82744;SDS011;72484;50.004;14.356;2023-11-18T02:27:52;6.20;;;2.70;;
82744;SDS011;72484;50.004;14.356;2023-11-18T02:31:49;7.50;;;2.90;;
82744;SDS011;72484;50.004;14.356;2023-11-18T02:36:25;7.50;;;2.90;;
82744;SDS011;72484;50.004;14.356;2023-11-18T02:40:07;7.00;;;3.00;;
82744;SDS011;72484;50.004;14.356;2023-11-18T02:44:08;6.70;;;2.90;;
82744;SDS011;72484;50.004;14.356;2023-11-18T02:48:11;7.60;;;3.10;;
82744;SDS011;72484;50.004;14.356;2023-11-18T02:52:11;6.90;;;2.90;;
82744;SDS011;72484;50.004;14.356;2023-11-18T02:56:09;6.70;;;2.70;;
82744;SDS011;72484;50.004;14.356;2023-11-18T03:00:07;6.80;;;2.70;;
82744;SDS011;72484;50.004;14.356;2023-11-18T03:04:12;7.10;;;2.80;;
82744;SDS011;72484;50.004;14.356;2023-11-18T03:08:09;6.80;;;2.80;;
82744;SDS011;72484;50.004;14.356;2023-11-18T03:12:06;7.30;;;3.10;;
82744;SDS011;72484;50.004;14.356;2023-11-18T03:16:07;7.20;;;2.70;;
82744;SDS011;72484;50.004;14.356;2023-11-18T03:20:07;6.70;;;2.80;;
82744;SDS011;72484;50.004;14.356;2023-11-18T03:24:29;7.00;;;2.80;;
82744;SDS011;72484;50.004;14.356;2023-11-18T03:28:05;7.70;;;3.60;;
82744;SDS011;72484;50.004;14.356;2023-11-18T03:32:02;7.30;;;2.70;;
82744;SDS011;72484;50.004;14.356;2023-11-18T03:36:21;7.30;;;3.20;;
82744;SDS011;72484;50.004;14.356;2023-11-18T03:39:38;7.30;;;3.10;;
82744;SDS011;72484;50.004;14.356;2023-11-18T03:43:34;7.10;;;3.30;;
82744;SDS011;72484;50.004;14.356;2023-11-18T03:47:32;8.00;;;3.50;;
82744;SDS011;72484;50.004;14.356;2023-11-18T03:51:29;7.70;;;3.30;;
82744;SDS011;72484;50.004;14.356;2023-11-18T03:55:26;7.40;;;3.50;;
82744;SDS011;72484;50.004;14.356;2023-11-18T03:59:24;7.40;;;3.30;;
82744;SDS011;72484;50.004;14.356;2023-11-18T04:03:22;7.30;;;3.70;;
82744;SDS011;72484;50.004;14.356;2023-11-18T04:07:18;7.20;;;3.40;;
82744;SDS011;72484;50.004;14.356;2023-11-18T04:11:37;7.50;;;3.40;;
82744;SDS011;72484;50.004;14.356;2023-11-18T04:15:35;7.50;;;3.30;;
82744;SDS011;72484;50.004;14.356;2023-11-18T04:19:32;7.00;;;3.50;;
82744;SDS011;72484;50.004;14.356;2023-11-18T04:23:29;7.50;;;3.10;;
82744;SDS011;72484;50.004;14.356;2023-11-18T04:27:26;7.90;;;4.10;;
82744;SDS011;72484;50.004;14.356;2023-11-18T04:31:23;8.70;;;3.70;;
82744;SDS011;72484;50.004;14.356;2023-11-18T04:35:21;7.30;;;3.70;;
82744;SDS011;72484;50.004;14.356;2023-11-18T04:43:31;8.10;;;3.70;;
82744;SDS011;72484;50.004;14.356;2023-11-18T04:47:48;8.70;;;3.60;;
82744;SDS011;72484;50.004;14.356;2023-11-18T04:51:52;7.90;;;3.60;;
82744;SDS011;72484;50.004;14.356;2023-11-18T04:55:23;7.50;;;3.70;;
82744;SDS011;72484;50.004;14.356;2023-11-18T04:59:20;7.20;;;3.50;;
82744;SDS011;72484;50.004;14.356;2023-11-18T05:03:18;7.60;;;3.30;;
82744;SDS011;72484;50.004;14.356;2023-11-18T05:07:47;8.20;;;3.60;;
82744;SDS011;72484;50.004;14.356;2023-11-18T05:11:32;8.20;;;4.10;;
82744;SDS011;72484;50.004;14.356;2023-11-18T05:15:29;8.10;;;4.20;;
82744;SDS011;72484;50.004;14.356;2023-11-18T05:19:26;7.30;;;3.60;;
82744;SDS011;72484;50.004;14.356;2023-11-18T05:23:23;7.60;;;3.90;;
82744;SDS011;72484;50.004;14.356;2023-11-18T05:27:20;7.50;;;3.70;;
82744;SDS011;72484;50.004;14.356;2023-11-18T05:31:17;7.60;;;3.50;;
82744;SDS011;72484;50.004;14.356;2023-11-18T05:35:15;7.40;;;3.40;;
82744;SDS011;72484;50.004;14.356;2023-11-18T05:39:12;7.70;;;3.70;;
82744;SDS011;72484;50.004;14.356;2023-11-18T05:43:29;8.40;;;3.20;;
82744;SDS011;72484;50.004;14.356;2023-11-18T05:46:49;6.60;;;3.30;;
82744;SDS011;72484;50.004;14.356;2023-11-18T05:50:46;7.70;;;3.10;;
82744;SDS011;72484;50.004;14.356;2023-11-18T05:54:43;7.50;;;3.60;;
82744;SDS011;72484;50.004;14.356;2023-11-18T05:58:41;8.30;;;3.50;;
82744;SDS011;72484;50.004;14.356;2023-11-18T06:02:39;8.80;;;3.40;;
82744;SDS011;72484;50.004;14.356;2023-11-18T06:06:36;7.70;;;3.50;;
82744;SDS011;72484;50.004;14.356;2023-11-18T06:10:54;8.30;;;4.00;;
82744;SDS011;72484;50.004;14.356;2023-11-18T06:14:11;8.70;;;4.30;;
82744;SDS011;72484;50.004;14.356;2023-11-18T06:18:32;7.20;;;3.80;;
82744;SDS011;72484;50.004;14.356;2023-11-18T06:21:45;8.20;;;4.00;;
82744;SDS011;72484;50.004;14.356;2023-11-18T06:25:46;9.50;;;4.40;;
82744;SDS011;72484;50.004;14.356;2023-11-18T06:29:42;7.60;;;3.80;;
82744;SDS011;72484;50.004;14.356;2023-11-18T06:33:40;8.60;;;4.40;;
82744;SDS011;72484;50.004;14.356;2023-11-18T06:37:38;8.40;;;4.20;;
82744;SDS011;72484;50.004;14.356;2023-11-18T06:41:36;9.00;;;4.40;;
82744;SDS011;72484;50.004;14.356;2023-11-18T06:45:43;8.70;;;4.20;;
82744;SDS011;72484;50.004;14.356;2023-11-18T06:49:41;9.60;;;4.70;;
82744;SDS011;72484;50.004;14.356;2023-11-18T06:53:45;9.90;;;4.90;;
82744;SDS011;72484;50.004;14.356;2023-11-18T06:58:03;9.30;;;4.30;;
82744;SDS011;72484;50.004;14.356;2023-11-18T07:02:00;9.00;;;4.40;;
82744;SDS011;72484;50.004;14.356;2023-11-18T07:06:00;8.50;;;4.10;;
82744;SDS011;72484;50.004;14.356;2023-11-18T07:09:59;8.90;;;3.80;;
82744;SDS011;72484;50.004;14.356;2023-11-18T07:14:01;8.50;;;3.70;;
82744;SDS011;72484;50.004;14.356;2023-11-18T07:17:38;8.70;;;4.40;;
82744;SDS011;72484;50.004;14.356;2023-11-18T07:21:56;8.90;;;4.50;;
82744;SDS011;72484;50.004;14.356;2023-11-18T07:25:33;8.40;;;4.00;;
82744;SDS011;72484;50.004;14.356;2023-11-18T07:29:10;8.60;;;4.10;;
82744;SDS011;72484;50.004;14.356;2023-11-18T07:33:07;6.10;;;2.70;;
82744;SDS011;72484;50.004;14.356;2023-11-18T07:37:27;6.70;;;2.70;;
82744;SDS011;72484;50.004;14.356;2023-11-18T07:41:03;6.00;;;2.20;;
82744;SDS011;72484;50.004;14.356;2023-11-18T07:45:03;6.70;;;2.30;;
82744;SDS011;72484;50.004;14.356;2023-11-18T07:49:13;6.00;;;2.50;;
82744;SDS011;72484;50.004;14.356;2023-11-18T07:53:12;7.40;;;2.50;;
82744;SDS011;72484;50.004;14.356;2023-11-18T07:57:10;6.50;;;3.00;;
82744;SDS011;72484;50.004;14.356;2023-11-18T08:01:08;5.90;;;2.40;;
82744;SDS011;72484;50.004;14.356;2023-11-18T08:05:05;6.90;;;2.70;;
82744;SDS011;72484;50.004;14.356;2023-11-18T08:09:06;6.80;;;2.80;;
82744;SDS011;72484;50.004;14.356;2023-11-18T08:13:27;6.80;;;3.00;;
82744;SDS011;72484;50.004;14.356;2023-11-18T08:16:44;6.60;;;3.10;;
82744;SDS011;72484;50.004;14.356;2023-11-18T08:20:42;6.10;;;2.70;;
82744;SDS011;72484;50.004;14.356;2023-11-18T08:25:01;5.90;;;2.60;;
82744;SDS011;72484;50.004;14.356;2023-11-18T08:28:37;6.20;;;2.70;;
82744;SDS011;72484;50.004;14.356;2023-11-18T08:32:34;5.90;;;2.40;;
82744;SDS011;72484;50.004;14.356;2023-11-18T08:36:32;7.60;;;2.80;;
82744;SDS011;72484;50.004;14.356;2023-11-18T08:40:30;7.00;;;3.30;;
82744;SDS011;72484;50.004;14.356;2023-11-18T08:44:28;6.50;;;3.20;;
82744;SDS011;72484;50.004;14.356;2023-11-18T08:48:49;7.10;;;3.60;;
82744;SDS011;72484;50.004;14.356;2023-11-18T08:52:45;6.60;;;3.20;;
82744;SDS011;72484;50.004;14.356;2023-11-18T08:57:04;6.40;;;2.70;;
82744;SDS011;72484;50.004;14.356;2023-11-18T09:00:23;9.30;;;3.90;;
82744;SDS011;72484;50.004;14.356;2023-11-18T09:04:39;9.20;;;4.80;;
82744;SDS011;72484;50.004;14.356;2023-11-18T09:08:37;11.30;;;5.10;;
82744;SDS011;72484;50.004;14.356;2023-11-18T09:12:36;9.90;;;4.30;;
82744;SDS011;72484;50.004;14.356;2023-11-18T09:16:56;10.40;;;5.50;;
82744;SDS011;72484;50.004;14.356;2023-11-18T09:20:13;10.30;;;5.20;;
82744;SDS011;72484;50.004;14.356;2023-11-18T09:24:35;13.40;;;5.60;;
82744;SDS011;72484;50.004;14.356;2023-11-18T09:27:51;11.70;;;5.30;;
82744;SDS011;72484;50.004;14.356;2023-11-18T09:31:48;10.80;;;5.40;;
82744;SDS011;72484;50.004;14.356;2023-11-18T09:35:50;11.50;;;4.70;;
82744;SDS011;72484;50.004;14.356;2023-11-18T09:39:52;8.10;;;4.40;;
82744;SDS011;72484;50.004;14.356;2023-11-18T09:43:53;10.10;;;5.70;;
82744;SDS011;72484;50.004;14.356;2023-11-18T09:47:51;9.80;;;5.10;;
82744;SDS011;72484;50.004;14.356;2023-11-18T09:51:49;9.80;;;5.10;;
82744;SDS011;72484;50.004;14.356;2023-11-18T09:55:52;9.40;;;5.00;;
82744;SDS011;72484;50.004;14.356;2023-11-18T10:00:29;9.80;;;5.20;;
82744;SDS011;72484;50.004;14.356;2023-11-18T10:04:06;12.00;;;5.90;;
82744;SDS011;72484;50.004;14.356;2023-11-18T10:08:05;9.60;;;5.10;;
82744;SDS011;72484;50.004;14.356;2023-11-18T10:12:02;9.20;;;4.60;;
82744;SDS011;72484;50.004;14.356;2023-11-18T10:16:03;8.80;;;5.00;;
82744;SDS011;72484;50.004;14.356;2023-11-18T10:20:03;9.40;;;5.10;;
82744;SDS011;72484;50.004;14.356;2023-11-18T10:24:06;8.30;;;4.40;;
82744;SDS011;72484;50.004;14.356;2023-11-18T10:28:08;8.80;;;4.50;;
82744;SDS011;72484;50.004;14.356;2023-11-18T10:32:39;9.00;;;4.80;;
82744;SDS011;72484;50.004;14.356;2023-11-18T10:35:56;9.60;;;4.90;;
82744;SDS011;72484;50.004;14.356;2023-11-18T10:39:57;8.80;;;4.40;;
82744;SDS011;72484;50.004;14.356;2023-11-18T10:44:06;13.00;;;5.80;;
82744;SDS011;72484;50.004;14.356;2023-11-18T10:48:08;10.00;;;4.70;;
82744;SDS011;72484;50.004;14.356;2023-11-18T10:52:07;12.20;;;4.60;;
82744;SDS011;72484;50.004;14.356;2023-11-18T10:56:05;8.00;;;3.90;;
82744;SDS011;72484;50.004;14.356;2023-11-18T11:00:16;7.40;;;3.30;;
82744;SDS011;72484;50.004;14.356;2023-11-18T11:04:15;6.80;;;2.80;;
82744;SDS011;72484;50.004;14.356;2023-11-18T11:08:52;6.30;;;2.30;;
82744;SDS011;72484;50.004;14.356;2023-11-18T11:12:55;5.80;;;2.20;;
82744;SDS011;72484;50.004;14.356;2023-11-18T11:16:59;6.90;;;2.30;;
82744;SDS011;72484;50.004;14.356;2023-11-18T11:21:32;6.90;;;2.80;;
82744;SDS011;72484;50.004;14.356;2023-11-18T11:24:52;6.00;;;2.30;;
82744;SDS011;72484;50.004;14.356;2023-11-18T11:29:04;6.00;;;2.20;;
82744;SDS011;72484;50.004;14.356;2023-11-18T11:33:10;12.50;;;6.80;;
82744;SDS011;72484;50.004;14.356;2023-11-18T11:37:17;6.90;;;3.10;;
82744;SDS011;72484;50.004;14.356;2023-11-18T11:41:15;5.30;;;2.00;;
82744;SDS011;72484;50.004;14.356;2023-11-18T11:45:20;5.60;;;2.40;;
82744;SDS011;72484;50.004;14.356;2023-11-18T11:49:22;6.10;;;2.40;;
82744;SDS011;72484;50.004;14.356;2023-11-18T11:53:24;7.00;;;2.70;;
82744;SDS011;72484;50.004;14.356;2023-11-18T11:57:26;6.10;;;3.00;;
82744;SDS011;72484;50.004;14.356;2023-11-18T12:01:26;6.70;;;3.30;;
82744;SDS011;72484;50.004;14.356;2023-11-18T12:05:31;10.10;;;4.90;;
82744;SDS011;72484;50.004;14.356;2023-11-18T12:09:31;7.50;;;3.10;;
82744;SDS011;72484;50.004;14.356;2023-11-18T12:13:32;7.20;;;3.10;;
82744;SDS011;72484;50.004;14.356;2023-11-18T12:17:33;6.70;;;2.90;;
82744;SDS011;72484;50.004;14.356;2023-11-18T12:22:12;9.00;;;4.70;;
82744;SDS011;72484;50.004;14.356;2023-11-18T12:30:58;7.50;;;3.70;;
82744;SDS011;72484;50.004;14.356;2023-11-18T12:34:15;7.70;;;4.20;;
82744;SDS011;72484;50.004;14.356;2023-11-18T12:38:30;8.30;;;3.70;;
82744;SDS011;72484;50.004;14.356;2023-11-18T12:42:52;7.40;;;3.60;;
82744;SDS011;72484;50.004;14.356;2023-11-18T12:47:19;8.60;;;4.70;;
82744;SDS011;72484;50.004;14.356;2023-11-18T12:50:36;7.20;;;3.80;;
82744;SDS011;72484;50.004;14.356;2023-11-18T12:54:33;7.20;;;3.70;;
82744;SDS011;72484;50.004;14.356;2023-11-18T12:58:32;7.70;;;3.90;;
82744;SDS011;72484;50.004;14.356;2023-11-18T13:02:29;8.00;;;4.10;;
82744;SDS011;72484;50.004;14.356;2023-11-18T13:06:28;8.10;;;4.20;;
82744;SDS011;72484;50.004;14.356;2023-11-18T13:10:25;7.90;;;4.40;;
82744;SDS011;72484;50.004;14.356;2023-11-18T13:14:22;9.30;;;4.10;;
82744;SDS011;72484;50.004;14.356;2023-11-18T13:18:43;9.60;;;4.70;;
82744;SDS011;72484;50.004;14.356;2023-11-18T13:22:00;8.70;;;4.80;;
82744;SDS011;72484;50.004;14.356;2023-11-18T13:25:59;8.20;;;4.80;;
82744;SDS011;72484;50.004;14.356;2023-11-18T13:29:58;8.50;;;4.60;;
82744;SDS011;72484;50.004;14.356;2023-11-18T13:33:55;8.90;;;5.00;;
82744;SDS011;72484;50.004;14.356;2023-11-18T13:37:54;8.90;;;4.70;;
82744;SDS011;72484;50.004;14.356;2023-11-18T13:41:53;8.40;;;4.40;;
82744;SDS011;72484;50.004;14.356;2023-11-18T13:45:53;8.50;;;5.00;;
82744;SDS011;72484;50.004;14.356;2023-11-18T13:49:56;8.90;;;4.90;;
82744;SDS011;72484;50.004;14.356;2023-11-18T13:53:53;10.20;;;5.40;;
82744;SDS011;72484;50.004;14.356;2023-11-18T13:57:50;10.20;;;5.60;;
82744;SDS011;72484;50.004;14.356;2023-11-18T14:01:47;9.80;;;5.40;;
82744;SDS011;72484;50.004;14.356;2023-11-18T14:05:44;10.70;;;6.20;;
82744;SDS011;72484;50.004;14.356;2023-11-18T14:09:44;10.20;;;5.70;;
82744;SDS011;72484;50.004;14.356;2023-11-18T14:14:23;18.80;;;9.00;;
82744;SDS011;72484;50.004;14.356;2023-11-18T14:17:59;22.40;;;11.40;;
82744;SDS011;72484;50.004;14.356;2023-11-18T14:21:56;14.70;;;7.80;;
82744;SDS011;72484;50.004;14.356;2023-11-18T14:25:54;13.00;;;7.60;;
82744;SDS011;72484;50.004;14.356;2023-11-18T14:29:50;11.10;;;6.70;;
82744;SDS011;72484;50.004;14.356;2023-11-18T14:33:49;10.10;;;5.60;;
82744;SDS011;72484;50.004;14.356;2023-11-18T14:37:48;10.40;;;5.80;;
82744;SDS011;72484;50.004;14.356;2023-11-18T14:41:45;11.70;;;6.30;;
82744;SDS011;72484;50.004;14.356;2023-11-18T14:46:05;10.60;;;4.90;;
82744;SDS011;72484;50.004;14.356;2023-11-18T14:49:21;9.30;;;4.80;;
82744;SDS011;72484;50.004;14.356;2023-11-18T14:53:19;9.00;;;4.60;;
82744;SDS011;72484;50.004;14.356;2023-11-18T14:57:18;8.10;;;4.70;;
82744;SDS011;72484;50.004;14.356;2023-11-18T15:01:16;9.30;;;4.40;;
82744;SDS011;72484;50.004;14.356;2023-11-18T15:05:13;9.30;;;4.80;;
82744;SDS011;72484;50.004;14.356;2023-11-18T15:09:33;9.00;;;4.90;;
82744;SDS011;72484;50.004;14.356;2023-11-18T15:12:51;9.00;;;5.00;;
82744;SDS011;72484;50.004;14.356;2023-11-18T15:16:50;11.00;;;5.50;;
82744;SDS011;72484;50.004;14.356;2023-11-18T15:20:47;10.20;;;5.40;;
82744;SDS011;72484;50.004;14.356;2023-11-18T15:24:45;9.60;;;5.40;;
82744;SDS011;72484;50.004;14.356;2023-11-18T15:28:43;9.10;;;5.60;;
82744;SDS011;72484;50.004;14.356;2023-11-18T15:32:41;9.60;;;5.30;;
82744;SDS011;72484;50.004;14.356;2023-11-18T15:36:42;9.20;;;5.20;;
82744;SDS011;72484;50.004;14.356;2023-11-18T15:40:39;9.50;;;5.70;;
82744;SDS011;72484;50.004;14.356;2023-11-18T15:44:36;11.60;;;6.30;;
82744;SDS011;72484;50.004;14.356;2023-11-18T15:48:34;10.40;;;6.50;;
82744;SDS011;72484;50.004;14.356;2023-11-18T15:52:31;10.70;;;6.50;;
82744;SDS011;72484;50.004;14.356;2023-11-18T15:56:32;11.90;;;7.20;;
82744;SDS011;72484;50.004;14.356;2023-11-18T16:00:28;13.90;;;7.80;;
82744;SDS011;72484;50.004;14.356;2023-11-18T16:04:26;14.60;;;8.90;;
82744;SDS011;72484;50.004;14.356;2023-11-18T16:08:25;14.40;;;8.50;;
82744;SDS011;72484;50.004;14.356;2023-11-18T16:12:22;14.30;;;8.90;;
82744;SDS011;72484;50.004;14.356;2023-11-18T16:16:21;17.00;;;10.90;;
82744;SDS011;72484;50.004;14.356;2023-11-18T16:20:22;16.40;;;10.60;;
82744;SDS011;72484;50.004;14.356;2023-11-18T16:24:20;15.00;;;9.90;;
82744;SDS011;72484;50.004;14.356;2023-11-18T16:38:45;17.40;;;10.50;;
82744;SDS011;72484;50.004;14.356;2023-11-18T16:41:43;16.90;;;11.00;;
82744;SDS011;72484;50.004;14.356;2023-11-18T16:45:40;18.30;;;11.00;;
82744;SDS011;72484;50.004;14.356;2023-11-18T16:49:39;18.20;;;10.70;;
82744;SDS011;72484;50.004;14.356;2023-11-18T16:53:38;19.00;;;11.50;;
82744;SDS011;72484;50.004;14.356;2023-11-18T16:57:35;19.10;;;13.20;;
82744;SDS011;72484;50.004;14.356;2023-11-18T17:01:33;18.40;;;11.90;;
82744;SDS011;72484;50.004;14.356;2023-11-18T17:05:30;26.40;;;17.10;;
82744;SDS011;72484;50.004;14.356;2023-11-18T17:09:28;20.60;;;14.10;;
82744;SDS011;72484;50.004;14.356;2023-11-18T17:13:26;18.20;;;11.70;;
82744;SDS011;72484;50.004;14.356;2023-11-18T17:27:50;17.30;;;11.60;;
82744;SDS011;72484;50.004;14.356;2023-11-18T17:30:48;19.90;;;11.80;;
82744;SDS011;72484;50.004;14.356;2023-11-18T17:34:45;18.90;;;12.00;;
82744;SDS011;72484;50.004;14.356;2023-11-18T17:38:44;17.40;;;11.90;;
82744;SDS011;72484;50.004;14.356;2023-11-18T17:42:45;18.70;;;12.10;;
82744;SDS011;72484;50.004;14.356;2023-11-18T17:57:12;28.50;;;17.50;;
82744;SDS011;72484;50.004;14.356;2023-11-18T18:00:11;26.60;;;17.20;;
82744;SDS011;72484;50.004;14.356;2023-11-18T18:04:14;24.20;;;16.10;;
82744;SDS011;72484;50.004;14.356;2023-11-18T18:08:11;40.80;;;24.20;;
82744;SDS011;72484;50.004;14.356;2023-11-18T18:12:13;35.30;;;23.00;;
82744;SDS011;72484;50.004;14.356;2023-11-18T18:26:12;22.10;;;13.80;;
82744;SDS011;72484;50.004;14.356;2023-11-18T18:29:09;23.30;;;14.50;;
82744;SDS011;72484;50.004;14.356;2023-11-18T18:33:05;23.30;;;14.20;;
82744;SDS011;72484;50.004;14.356;2023-11-18T18:37:04;21.60;;;12.80;;
82744;SDS011;72484;50.004;14.356;2023-11-18T18:41:01;22.70;;;12.80;;
82744;SDS011;72484;50.004;14.356;2023-11-18T18:44:59;21.10;;;13.10;;
82744;SDS011;72484;50.004;14.356;2023-11-18T18:48:56;20.00;;;12.70;;
82744;SDS011;72484;50.004;14.356;2023-11-18T18:52:55;20.70;;;12.10;;
82744;SDS011;72484;50.004;14.356;2023-11-18T18:56:53;20.60;;;12.90;;
82744;SDS011;72484;50.004;14.356;2023-11-18T19:00:50;20.50;;;12.40;;
82744;SDS011;72484;50.004;14.356;2023-11-18T19:04:47;22.00;;;12.40;;
82744;SDS011;72484;50.004;14.356;2023-11-18T19:08:44;25.60;;;16.50;;
82744;SDS011;72484;50.004;14.356;2023-11-18T19:12:41;21.40;;;14.00;;
82744;SDS011;72484;50.004;14.356;2023-11-18T19:27:06;17.10;;;10.00;;
82744;SDS011;72484;50.004;14.356;2023-11-18T19:40:31;16.10;;;9.00;;
82744;SDS011;72484;50.004;14.356;2023-11-18T19:43:28;15.70;;;8.50;;
82744;SDS011;72484;50.004;14.356;2023-11-18T19:47:26;15.90;;;8.80;;
82744;SDS011;72484;50.004;14.356;2023-11-18T19:51:23;15.00;;;8.60;;
82744;SDS011;72484;50.004;14.356;2023-11-18T19:55:20;17.10;;;9.90;;
82744;SDS011;72484;50.004;14.356;2023-11-18T19:59:17;16.30;;;10.70;;
82744;SDS011;72484;50.004;14.356;2023-11-18T20:03:14;17.20;;;11.00;;
82744;SDS011;72484;50.004;14.356;2023-11-18T20:07:11;19.10;;;11.60;;
82744;SDS011;72484;50.004;14.356;2023-11-18T20:11:09;19.90;;;11.30;;
82744;SDS011;72484;50.004;14.356;2023-11-18T20:15:28;19.20;;;10.70;;
82744;SDS011;72484;50.004;14.356;2023-11-18T20:19:05;18.30;;;10.50;;
82744;SDS011;72484;50.004;14.356;2023-11-18T20:23:02;17.20;;;10.60;;
82744;SDS011;72484;50.004;14.356;2023-11-18T20:27:01;17.00;;;10.20;;
82744;SDS011;72484;50.004;14.356;2023-11-18T20:31:45;17.70;;;10.50;;
82744;SDS011;72484;50.004;14.356;2023-11-18T20:35:42;18.50;;;11.40;;
82744;SDS011;72484;50.004;14.356;2023-11-18T20:39:39;20.80;;;12.10;;
82744;SDS011;72484;50.004;14.356;2023-11-18T20:43:36;22.00;;;14.80;;
82744;SDS011;72484;50.004;14.356;2023-11-18T20:47:34;21.80;;;14.30;;
82744;SDS011;72484;50.004;14.356;2023-11-18T20:51:55;21.80;;;13.90;;
82744;SDS011;72484;50.004;14.356;2023-11-18T20:55:32;22.20;;;14.20;;
82744;SDS011;72484;50.004;14.356;2023-11-18T20:59:33;23.60;;;14.90;;
82744;SDS011;72484;50.004;14.356;2023-11-18T21:04:10;22.50;;;14.20;;
82744;SDS011;72484;50.004;14.356;2023-11-18T21:08:08;22.50;;;14.30;;
82744;SDS011;72484;50.004;14.356;2023-11-18T21:12:07;22.60;;;13.70;;
82744;SDS011;72484;50.004;14.356;2023-11-18T21:16:06;21.30;;;13.30;;
82744;SDS011;72484;50.004;14.356;2023-11-18T21:20:04;22.80;;;14.10;;
82744;SDS011;72484;50.004;14.356;2023-11-18T21:24:07;21.40;;;13.20;;
82744;SDS011;72484;50.004;14.356;2023-11-18T21:28:05;25.20;;;12.50;;
82744;SDS011;72484;50.004;14.356;2023-11-18T21:32:04;20.10;;;12.40;;
82744;SDS011;72484;50.004;14.356;2023-11-18T21:36:01;21.80;;;13.80;;
82744;SDS011;72484;50.004;14.356;2023-11-18T21:39:59;21.30;;;13.40;;
82744;SDS011;72484;50.004;14.356;2023-11-18T21:44:33;19.70;;;12.30;;
82744;SDS011;72484;50.004;14.356;2023-11-18T21:47:36;21.10;;;13.00;;
82744;SDS011;72484;50.004;14.356;2023-11-18T21:51:35;18.10;;;11.10;;
82744;SDS011;72484;50.004;14.356;2023-11-18T21:55:31;19.00;;;11.60;;
82744;SDS011;72484;50.004;14.356;2023-11-18T21:59:28;19.20;;;11.10;;
82744;SDS011;72484;50.004;14.356;2023-11-18T22:03:25;16.00;;;10.20;;
82744;SDS011;72484;50.004;14.356;2023-11-18T22:13:32;17.70;;;10.70;;
82744;SDS011;72484;50.004;14.356;2023-11-18T22:22:10;17.00;;;10.40;;
82744;SDS011;72484;50.004;14.356;2023-11-18T22:26:07;16.30;;;9.50;;
82744;SDS011;72484;50.004;14.356;2023-11-18T22:30:44;16.00;;;8.90;;
82744;SDS011;72484;50.004;14.356;2023-11-18T22:34:41;13.70;;;8.50;;
82744;SDS011;72484;50.004;14.356;2023-11-18T22:38:55;15.20;;;8.60;;
82744;SDS011;72484;50.004;14.356;2023-11-18T22:42:17;13.10;;;7.10;;
82744;SDS011;72484;50.004;14.356;2023-11-18T22:46:13;13.00;;;8.10;;
82744;SDS011;72484;50.004;14.356;2023-11-18T22:50:11;12.30;;;7.10;;
82744;SDS011;72484;50.004;14.356;2023-11-18T22:54:11;12.30;;;7.00;;
82744;SDS011;72484;50.004;14.356;2023-11-18T22:58:11;11.40;;;6.30;;
82744;SDS011;72484;50.004;14.356;2023-11-18T23:02:08;11.40;;;6.30;;
82744;SDS011;72484;50.004;14.356;2023-11-18T23:06:08;12.60;;;6.10;;
82744;SDS011;72484;50.004;14.356;2023-11-18T23:10:17;10.30;;;5.60;;
82744;SDS011;72484;50.004;14.356;2023-11-18T23:14:57;10.50;;;5.50;;
82744;SDS011;72484;50.004;14.356;2023-11-18T23:18:57;10.60;;;5.60;;
82744;SDS011;72484;50.004;14.356;2023-11-18T23:22:58;9.80;;;5.50;;
82744;SDS011;72484;50.004;14.356;2023-11-18T23:26:55;10.60;;;5.90;;
82744;SDS011;72484;50.004;14.356;2023-11-18T23:30:54;10.00;;;5.80;;
82744;SDS011;72484;50.004;14.356;2023-11-18T23:35:51;10.10;;;5.70;;
82744;SDS011;72484;50.004;14.356;2023-11-18T23:39:48;10.00;;;5.80;;
82744;SDS011;72484;50.004;14.356;2023-11-18T23:43:48;11.20;;;6.10;;
82744;SDS011;72484;50.004;14.356;2023-11-18T23:47:44;10.40;;;6.00;;
82744;SDS011;72484;50.004;14.356;2023-11-18T23:51:44;11.70;;;6.50;;
82744;SDS011;72484;50.004;14.356;2023-11-18T23:55:41;10.60;;;6.30;;
82744;SDS011;72484;50.004;14.356;2023-11-18T23:59:39;11.20;;;6.40;;
